James M Cox Dayton International Airport
KDAY : now visible

Airfield :











YOU CAN JOIN US ON...

 
LOGIN :

Register | Disclaimer

   EN    FR    IT 

 









Legend :    VFR   Marginal VFR   IFR   Intensive IFR   Very Intensive IFR
Visi :
Ceiling :
>= 8 km
>= 3000ft
5 to 8 km
1000 to 3000 ft
1500m to 5 km
500 to 1000 ft
800 to 1500m
200 to 500 ft
< 800m
< 200 ft
Symbols :   Thunderstorms  Fog  Heavy snow  Heavy precipitations  Wind > 20 kt






- Airport Elevation : 1009 ft
- IATA code : DAY


KDAY - James M Cox Dayton International

CURRENT METAR :
  • 200256Z 34012KT 10SM FEW080 FEW120 08/02 A2996 RMK AO2 WSHFT 0143 SLP144 T00780022 53036

EXPIRED METARs :
  • 200203Z 34019G24KT 10SM FEW080 FEW120 FEW140 10/03 A2993 RMK AO2 WSHFT 0143 T01000033
  • 200156Z 33016G24KT 10SM FEW080 FEW120 FEW140 11/03 A2992 RMK AO2 PK WND 33030/0144 PRESRR SLP132 T01060033
  • 200056Z 23008KT 10SM FEW085 SCT120 SCT140 14/01 A2987 RMK AO2 SLP114 T01390011

TAF KDAY
Valid from the 20 at 02:00 until the 21 at 00:00 UTC


200218Z 2002/2024 34015G23KT P6SM SCT100
FM200400 32008KT P6SM SCT100
FM201000 34005KT P6SM SCT050 BKN100
FM201500 08004KT P6SM BKN035
TEMPO 2016/2020 BKN030
FM202000 27007KT P6SM BKN025
KZID FIR / North America



MET'MAP, your aeronautical weather chart ! - Copyright ORBIFLY December 2007 - Disclaimer

ORBIFLY MET'MAP TEAM :

Programming & Development : Alexandra Zaïnal
Concept & original design : Baudouin d'Aumeries
Assistance for programming : Marc-Olivier Méhu
Technical & hardware support : Manuel Goepfert

Contact : metmap@orbifly.com




SOURCES & CREDITS :

   NOAA       Earth
Advisory